Terminal Aerodrome Forecast
Issued by NWS

Home | Current Version | Previous Version | Graphics & Text | Print | Product List | Glossary On
Versions: 1 2 3 4 5 6 7 8 9 10 11 12 13 14 15 16
000
FTUS43 KMPX 011730
TAFRWF
TAF
KRWF 011730Z 0118/0218 20009KT P6SM VCSH FEW060 BKN100
     FM020000 19010KT P6SM VCSH SCT050 BKN090
      TEMPO 0200/0204 3SM TSRA OVC040CB
     FM020500 22008KT P6SM SCT100=

USA.gov is the U.S. government's official web portal to all federal, state and local government web resources and services.